createdAt,value
2022-10-17T00:05:24.155Z,2.07
2022-10-17T00:16:34.359Z,1.97
2022-10-17T00:21:32.604Z,2.10
2022-10-17T00:26:27.769Z,1.80
2022-10-17T00:31:14.122Z,1.87
2022-10-17T00:36:34.471Z,2.40
2022-10-17T00:42:52.421Z,2.00
2022-10-17T00:53:30.730Z,2.10
2022-10-17T00:58:52.926Z,2.10
2022-10-17T01:03:45.059Z,2.37
2022-10-17T01:08:32.244Z,2.20
2022-10-17T01:13:35.635Z,2.50
2022-10-17T01:18:37.453Z,2.40
2022-10-17T01:23:57.177Z,2.80
2022-10-17T01:29:17.287Z,2.80
2022-10-17T01:34:41.873Z,3.43
2022-10-17T01:39:45.330Z,4.10
2022-10-17T01:45:05.866Z,5.60
2022-10-17T01:49:55.058Z,10.47
2022-10-17T01:54:54.145Z,5.83
2022-10-17T01:59:47.415Z,3.87
2022-10-17T02:04:31.028Z,3.70
2022-10-17T02:09:24.179Z,3.50
2022-10-17T02:14:44.682Z,3.73
2022-10-17T02:20:03.160Z,3.80
2022-10-17T02:25:00.221Z,4.20
2022-10-17T02:30:07.049Z,4.20
2022-10-17T02:34:57.950Z,4.20
2022-10-17T02:39:42.255Z,4.30
2022-10-17T02:44:31.977Z,4.63
2022-10-17T02:49:36.362Z,3.73
2022-10-17T02:54:37.786Z,3.20
2022-10-17T02:59:27.790Z,3.17
2022-10-17T03:04:16.502Z,2.90
2022-10-17T03:09:03.352Z,3.03
2022-10-17T03:13:50.247Z,2.43
2022-10-17T03:18:37.100Z,2.90
2022-10-17T03:23:25.206Z,2.87
2022-10-17T03:28:18.560Z,2.70
2022-10-17T03:33:02.694Z,2.60
2022-10-17T03:37:50.285Z,3.40
2022-10-17T03:42:40.648Z,3.13
2022-10-17T03:47:25.228Z,3.67
2022-10-17T03:52:15.146Z,3.50
2022-10-17T03:57:02.340Z,2.93
2022-10-17T04:01:50.509Z,3.27
2022-10-17T04:06:39.111Z,3.90
2022-10-17T04:11:25.970Z,3.63
2022-10-17T04:16:16.410Z,3.40
2022-10-17T04:21:18.806Z,3.30
2022-10-17T04:26:07.347Z,3.67
2022-10-17T04:31:11.037Z,4.47
2022-10-17T04:36:18.131Z,7.30
2022-10-17T04:41:03.622Z,13.30
2022-10-17T04:45:49.235Z,17.00
2022-10-17T04:50:38.869Z,19.03
2022-10-17T04:55:45.202Z,20.60
2022-10-17T05:00:29.254Z,19.37
2022-10-17T05:05:18.844Z,19.73
2022-10-17T05:10:06.475Z,19.37
2022-10-17T05:15:13.424Z,18.87
2022-10-17T05:20:17.797Z,18.33
2022-10-17T05:25:01.323Z,20.53
2022-10-17T05:30:27.677Z,22.57
2022-10-17T05:35:25.105Z,23.33
2022-10-17T05:40:33.169Z,21.87
2022-10-17T05:46:10.014Z,22.53
2022-10-17T05:57:21.581Z,23.47
2022-10-17T06:02:44.292Z,24.27
2022-10-17T06:13:18.855Z,21.90
2022-10-17T06:18:56.261Z,21.13
2022-10-17T06:23:44.416Z,20.07
2022-10-17T06:29:40.569Z,21.00
2022-10-17T06:35:13.046Z,20.07
2022-10-17T06:40:49.072Z,19.77
2022-10-17T06:46:05.714Z,19.07
2022-10-17T06:50:59.639Z,19.10
2022-10-17T06:56:45.751Z,19.70
2022-10-17T07:14:57.902Z,20.30
2022-10-17T07:20:02.978Z,18.67
2022-10-17T07:25:01.912Z,21.03
2022-10-17T07:36:14.677Z,19.03
2022-10-17T07:46:56.267Z,18.13
2022-10-17T07:52:01.177Z,18.67
2022-10-17T07:57:53.958Z,17.63
2022-10-17T08:03:13.069Z,17.70
2022-10-17T08:08:02.386Z,17.57
2022-10-17T08:12:58.139Z,15.37
2022-10-17T08:50:11.278Z,12.07
2022-10-17T08:55:45.681Z,14.30
2022-10-17T09:01:55.442Z,14.40
2022-10-17T09:15:08.975Z,16.23
2022-10-17T09:20:27.668Z,15.57
2022-10-17T09:26:05.360Z,13.10
2022-10-17T09:42:38.558Z,16.27
2022-10-17T09:48:49.782Z,14.83
2022-10-17T10:06:25.298Z,14.93
2022-10-17T10:12:46.454Z,17.10
2022-10-17T10:18:22.908Z,15.37
2022-10-17T10:30:06.686Z,14.70
2022-10-17T10:47:27.226Z,14.03
2022-10-17T11:11:43.087Z,14.43
2022-10-17T11:17:02.433Z,13.80
2022-10-17T11:34:27.103Z,13.93
2022-10-17T11:40:30.795Z,13.50
2022-10-17T11:46:38.620Z,14.05
2022-10-17T11:59:26.750Z,13.77
2022-10-17T12:23:12.690Z,13.83
2022-10-17T12:29:06.449Z,13.05
2022-10-17T12:41:39.656Z,12.68
2022-10-17T12:59:31.657Z,12.35
2022-10-17T13:15:47.349Z,11.50
2022-10-17T13:21:23.362Z,11.38
2022-10-17T13:40:00.345Z,12.02
2022-10-17T13:45:24.567Z,13.90
2022-10-17T13:51:13.648Z,13.18
2022-10-17T13:57:22.825Z,13.93
2022-10-17T14:02:58.312Z,12.10
2022-10-17T14:38:36.673Z,14.33
2022-10-17T14:43:46.359Z,14.90
2022-10-17T14:49:24.235Z,15.67
2022-10-17T14:55:28.667Z,14.13
2022-10-17T15:06:28.623Z,14.83
2022-10-17T15:12:04.297Z,16.40
2022-10-17T15:23:26.238Z,15.40
2022-10-17T15:28:18.262Z,14.70
2022-10-17T15:33:18.874Z,15.90
2022-10-17T15:39:39.291Z,15.80
2022-10-17T15:45:54.350Z,17.13
2022-10-17T15:51:10.146Z,17.20
2022-10-17T15:56:15.700Z,17.30
2022-10-17T16:01:51.977Z,16.90
2022-10-17T16:06:42.974Z,17.93
2022-10-17T16:11:57.575Z,16.80
2022-10-17T16:16:49.215Z,17.73
2022-10-17T16:21:56.274Z,19.00
2022-10-17T16:27:16.216Z,18.70
2022-10-17T16:32:17.926Z,19.27
2022-10-17T16:37:02.619Z,20.73
2022-10-17T16:41:47.809Z,20.10
2022-10-17T16:46:36.949Z,19.77
2022-10-17T16:51:29.239Z,20.00
2022-10-17T16:56:16.837Z,19.57
2022-10-17T17:25:35.893Z,19.30
2022-10-17T17:30:22.236Z,18.47
2022-10-17T17:35:10.349Z,21.07
2022-10-17T17:39:58.279Z,19.30
2022-10-17T17:44:48.700Z,19.67
2022-10-17T17:50:34.032Z,21.47
2022-10-17T17:55:46.113Z,19.87
2022-10-17T18:00:44.850Z,19.77
2022-10-17T18:05:55.060Z,18.90
2022-10-17T18:11:06.805Z,20.17
2022-10-17T18:16:29.525Z,19.40
2022-10-17T18:21:51.231Z,20.80
2022-10-17T18:26:37.842Z,20.73
2022-10-17T18:31:44.636Z,19.07
2022-10-17T18:36:32.610Z,18.80
2022-10-17T18:41:21.630Z,19.20
2022-10-17T18:46:10.942Z,19.43
2022-10-17T18:51:11.545Z,20.77
2022-10-17T18:55:57.202Z,21.47
2022-10-17T19:01:08.433Z,20.13
2022-10-17T19:06:11.803Z,19.63
2022-10-17T19:11:10.592Z,19.30
2022-10-17T19:16:16.161Z,19.13
2022-10-17T19:21:21.836Z,18.80
2022-10-17T19:26:11.287Z,17.73
2022-10-17T19:30:54.715Z,18.80
2022-10-17T19:36:13.194Z,18.80
2022-10-17T19:41:37.262Z,16.83
2022-10-17T19:46:39.288Z,17.77
2022-10-17T19:52:00.231Z,17.13
2022-10-17T19:56:58.107Z,16.90
2022-10-17T20:02:04.730Z,17.63
2022-10-17T20:07:11.330Z,16.80
2022-10-17T20:12:49.799Z,16.37
2022-10-17T20:17:49.176Z,16.90
2022-10-17T20:22:54.596Z,16.50
2022-10-17T20:27:44.939Z,15.60
2022-10-17T20:33:03.266Z,15.53
2022-10-17T20:38:23.706Z,16.20
2022-10-17T20:43:12.247Z,15.30
2022-10-17T20:48:00.447Z,16.73
2022-10-17T20:53:24.773Z,16.57
2022-10-17T20:58:24.011Z,15.67
2022-10-17T21:03:11.918Z,16.10
2022-10-17T21:08:51.879Z,15.93
2022-10-17T21:13:35.375Z,15.33
2022-10-17T21:18:23.597Z,15.77
2022-10-17T21:23:45.110Z,15.53
2022-10-17T21:29:06.491Z,13.87
2022-10-17T21:40:16.113Z,12.47
2022-10-17T21:45:07.547Z,11.43
2022-10-17T21:50:52.085Z,10.70
2022-10-17T22:02:52.158Z,10.43
2022-10-17T22:08:00.690Z,10.77
2022-10-17T22:13:18.994Z,11.10
2022-10-17T22:18:07.175Z,10.80
2022-10-17T22:23:09.050Z,10.27
2022-10-17T22:28:50.463Z,9.57
2022-10-17T22:33:50.089Z,9.27
2022-10-17T22:38:58.519Z,8.67
2022-10-17T22:44:02.783Z,9.30
2022-10-17T22:49:00.076Z,8.70
2022-10-17T22:54:11.084Z,8.57
2022-10-17T22:59:23.650Z,8.07
2022-10-17T23:04:15.442Z,7.10
2022-10-17T23:14:59.936Z,7.43
2022-10-17T23:20:29.833Z,6.83
2022-10-17T23:25:20.088Z,7.20
2022-10-17T23:30:07.987Z,7.63
2022-10-17T23:35:11.770Z,8.07
2022-10-17T23:40:04.047Z,7.70
2022-10-17T23:45:07.844Z,7.37
2022-10-17T23:50:21.956Z,7.77
2022-10-17T23:55:44.451Z,7.60
